createdAt,value
2022-08-03T00:01:36.614Z,58.13
2022-08-03T00:04:39.056Z,58.52
2022-08-03T00:07:41.208Z,58.55
2022-08-03T00:10:43.981Z,58.24
2022-08-03T00:13:46.116Z,58.46
2022-08-03T00:16:48.497Z,58.63
2022-08-03T00:19:50.602Z,59.02
2022-08-03T00:22:52.987Z,59.36
2022-08-03T00:25:55.247Z,59.84
2022-08-03T00:28:57.692Z,60.28
2022-08-03T00:32:00.461Z,60.89
2022-08-03T00:35:09.845Z,60.91
2022-08-03T00:38:14.549Z,61.74
2022-08-03T00:41:16.954Z,61.37
2022-08-03T00:44:19.068Z,61.09
2022-08-03T00:47:21.502Z,60.86
2022-08-03T00:50:25.322Z,61.44
2022-08-03T00:53:28.647Z,62.11
2022-08-03T00:56:30.830Z,62.14
2022-08-03T00:59:33.261Z,62.87
2022-08-03T01:02:35.913Z,62.53
2022-08-03T01:05:52.628Z,62.49
2022-08-03T01:08:58.424Z,62.27
2022-08-03T01:12:14.742Z,62.41
2022-08-03T01:15:46.390Z,62.80
2022-08-03T01:19:01.645Z,62.83
2022-08-03T01:22:16.179Z,62.96
2022-08-03T01:25:37.311Z,63.76
2022-08-03T01:28:47.807Z,63.27
2022-08-03T01:32:53.392Z,63.79
2022-08-03T01:35:47.453Z,63.91
2022-08-03T01:38:57.298Z,64.19
2022-08-03T01:42:06.057Z,64.96
2022-08-03T01:45:12.491Z,65.05
2022-08-03T01:48:17.633Z,64.85
2022-08-03T01:51:22.256Z,64.94
2022-08-03T01:54:26.517Z,64.94
2022-08-03T01:57:30.361Z,65.68
2022-08-03T02:00:33.146Z,65.67
2022-08-03T02:03:38.386Z,65.99
2022-08-03T02:07:03.449Z,65.49
2022-08-03T02:10:07.420Z,66.36
2022-08-03T02:13:10.739Z,65.75
2022-08-03T02:16:14.238Z,65.83
2022-08-03T02:19:18.069Z,66.15
2022-08-03T02:22:22.032Z,66.36
2022-08-03T02:25:24.280Z,66.71
2022-08-03T02:28:31.950Z,66.25
2022-08-03T02:31:38.295Z,66.58
2022-08-03T02:34:44.625Z,67.24
2022-08-03T02:37:50.340Z,67.27
2022-08-03T02:40:56.205Z,66.74
2022-08-03T02:44:05.595Z,67.63
2022-08-03T02:47:12.516Z,67.26
2022-08-03T02:50:17.357Z,67.06
2022-08-03T02:53:22.305Z,69.11
2022-08-03T02:56:25.954Z,69.21
2022-08-03T02:59:31.240Z,70.06
2022-08-03T03:02:34.891Z,70.13
2022-08-03T03:05:55.790Z,69.72
2022-08-03T03:09:00.366Z,71.00
2022-08-03T03:12:03.247Z,71.60
2022-08-03T03:15:06.614Z,71.72
2022-08-03T03:18:10.543Z,71.88
2022-08-03T03:21:16.394Z,71.10
2022-08-03T03:24:21.123Z,70.85
2022-08-03T03:27:23.437Z,70.49
2022-08-03T03:30:26.271Z,70.32
2022-08-03T03:33:28.787Z,69.71
2022-08-03T03:36:31.267Z,69.16
2022-08-03T03:39:33.469Z,69.33
2022-08-03T03:42:36.296Z,69.60
2022-08-03T03:45:41.917Z,69.85
2022-08-03T03:48:44.828Z,70.84
2022-08-03T03:51:47.131Z,71.91
2022-08-03T03:54:49.538Z,72.33
2022-08-03T03:57:51.677Z,71.97
2022-08-03T04:00:54.272Z,72.10
2022-08-03T04:03:56.895Z,72.14
2022-08-03T04:07:17.833Z,71.18
2022-08-03T04:10:42.322Z,70.83
2022-08-03T04:13:49.361Z,70.12
2022-08-03T04:16:56.470Z,69.38
2022-08-03T04:20:01.362Z,69.51
2022-08-03T04:23:05.337Z,69.41
2022-08-03T04:26:21.180Z,69.40
2022-08-03T04:29:25.994Z,69.20
2022-08-03T04:32:29.106Z,68.36
2022-08-03T04:35:58.648Z,67.09
2022-08-03T04:39:16.496Z,63.46
2022-08-03T04:42:22.435Z,56.40
2022-08-03T04:45:25.839Z,49.78
2022-08-03T04:48:28.637Z,43.76
2022-08-03T04:51:31.781Z,39.42
2022-08-03T04:54:42.442Z,36.22
2022-08-03T04:57:44.633Z,33.90
2022-08-03T05:00:51.006Z,32.08
2022-08-03T05:03:53.262Z,30.85
2022-08-03T05:06:56.001Z,29.57
2022-08-03T05:10:02.966Z,28.72
2022-08-03T05:13:05.903Z,28.77
2022-08-03T05:16:08.161Z,27.26
2022-08-03T05:19:10.639Z,27.55
2022-08-03T05:22:12.753Z,26.90
2022-08-03T05:25:19.183Z,26.95
2022-08-03T05:28:22.403Z,27.43
2022-08-03T05:31:24.833Z,26.37
2022-08-03T05:34:27.006Z,25.22
2022-08-03T05:37:29.578Z,24.04
2022-08-03T05:40:32.132Z,24.12
2022-08-03T05:43:34.601Z,24.68
2022-08-03T05:46:39.095Z,24.22
2022-08-03T05:49:41.849Z,23.80
2022-08-03T05:52:44.809Z,23.85
2022-08-03T05:55:50.232Z,23.43
2022-08-03T05:58:55.043Z,23.31
2022-08-03T06:01:57.797Z,21.05
2022-08-03T06:05:00.520Z,21.02
2022-08-03T06:08:03.710Z,21.70
2022-08-03T06:11:06.619Z,20.28
2022-08-03T06:14:08.754Z,19.49
2022-08-03T06:17:11.385Z,19.72
2022-08-03T06:20:17.283Z,19.27
2022-08-03T06:23:20.340Z,20.38
2022-08-03T06:26:24.685Z,19.84
2022-08-03T06:29:27.724Z,19.95
2022-08-03T06:32:29.885Z,19.34
2022-08-03T06:35:33.584Z,19.41
2022-08-03T06:38:37.379Z,19.70
2022-08-03T06:41:44.699Z,19.48
2022-08-03T06:44:47.310Z,19.68
2022-08-03T06:48:03.784Z,19.59
2022-08-03T06:51:05.915Z,18.95
2022-08-03T06:54:09.308Z,19.20
2022-08-03T06:57:11.701Z,19.11
2022-08-03T07:00:14.706Z,19.02
2022-08-03T07:03:17.824Z,19.13
2022-08-03T07:06:20.327Z,19.23
2022-08-03T07:09:22.583Z,18.73
2022-08-03T07:12:27.075Z,17.93
2022-08-03T07:15:54.344Z,17.79
2022-08-03T07:18:51.963Z,17.91
2022-08-03T07:21:54.178Z,18.74
2022-08-03T07:25:01.717Z,18.40
2022-08-03T07:28:04.104Z,17.81
2022-08-03T07:31:06.555Z,17.83
2022-08-03T07:34:08.690Z,18.29
2022-08-03T07:37:11.404Z,17.89
2022-08-03T07:40:13.712Z,19.28
2022-08-03T07:43:17.561Z,20.19
2022-08-03T07:46:19.723Z,19.51
2022-08-03T07:49:22.231Z,19.93
2022-08-03T07:52:43.119Z,20.84
2022-08-03T07:55:45.562Z,20.46
2022-08-03T07:58:47.685Z,20.88
2022-08-03T08:01:53.015Z,22.42
2022-08-03T08:04:55.487Z,22.46
2022-08-03T08:07:57.645Z,23.39
2022-08-03T08:11:00.117Z,25.29
2022-08-03T08:14:02.928Z,26.25
2022-08-03T08:17:07.372Z,27.60
2022-08-03T08:20:11.826Z,28.18
2022-08-03T08:23:37.923Z,28.44
2022-08-03T08:26:37.218Z,30.13
2022-08-03T08:29:52.574Z,30.99
2022-08-03T08:32:58.107Z,31.90
2022-08-03T08:36:00.746Z,32.54
2022-08-03T08:39:03.347Z,31.69
2022-08-03T08:42:05.848Z,33.07
2022-08-03T08:45:09.387Z,33.38
2022-08-03T08:48:13.892Z,33.80
2022-08-03T08:51:19.445Z,34.33
2022-08-03T08:54:23.777Z,34.16
2022-08-03T08:57:42.486Z,33.51
2022-08-03T09:00:45.683Z,33.27
2022-08-03T09:03:48.711Z,33.55
2022-08-03T09:07:17.604Z,33.22
2022-08-03T09:10:21.947Z,33.52
2022-08-03T09:13:24.818Z,34.13
2022-08-03T09:16:26.950Z,33.00
2022-08-03T09:19:33.925Z,32.91
2022-08-03T09:22:36.309Z,33.01
2022-08-03T09:25:41.447Z,33.00
2022-08-03T09:28:52.862Z,32.47
2022-08-03T09:32:05.191Z,32.07
2022-08-03T09:35:09.554Z,32.31
2022-08-03T09:38:14.846Z,32.17
2022-08-03T09:41:20.111Z,32.75
2022-08-03T09:44:37.826Z,32.00
2022-08-03T09:47:44.674Z,32.19
2022-08-03T09:50:56.831Z,31.81
2022-08-03T09:54:03.933Z,31.66
2022-08-03T09:57:06.537Z,31.12
2022-08-03T10:00:16.390Z,30.05
2022-08-03T10:03:18.846Z,30.75
2022-08-03T10:06:22.349Z,30.86
2022-08-03T10:09:31.388Z,31.89
2022-08-03T10:12:34.205Z,32.07
2022-08-03T10:16:24.017Z,31.28
2022-08-03T10:19:01.747Z,31.00
2022-08-03T10:22:10.543Z,30.79
2022-08-03T10:25:13.537Z,31.13
2022-08-03T10:28:20.130Z,31.30
2022-08-03T10:31:23.929Z,32.27
2022-08-03T10:34:29.079Z,33.08
2022-08-03T10:37:34.498Z,32.56
2022-08-03T10:40:48.605Z,32.04
2022-08-03T10:44:04.607Z,32.27
2022-08-03T10:47:07.358Z,32.05
2022-08-03T10:50:10.026Z,31.82
2022-08-03T10:53:12.797Z,31.65
2022-08-03T10:57:14.235Z,31.44
2022-08-03T11:00:22.581Z,31.36
2022-08-03T11:03:24.757Z,30.33
2022-08-03T11:06:28.724Z,30.13
2022-08-03T11:09:44.045Z,30.72
2022-08-03T11:12:47.092Z,30.89
2022-08-03T11:15:51.754Z,30.02
2022-08-03T11:19:00.355Z,29.35
2022-08-03T11:22:02.609Z,29.57
2022-08-03T11:25:05.971Z,29.58
2022-08-03T11:28:28.538Z,29.67
2022-08-03T11:31:49.696Z,29.09
2022-08-03T11:35:14.746Z,28.70
2022-08-03T11:38:19.224Z,27.49
2022-08-03T11:41:33.515Z,27.33
2022-08-03T11:44:47.883Z,27.06
2022-08-03T11:47:54.466Z,27.38
2022-08-03T11:50:57.064Z,27.23
2022-08-03T11:54:05.439Z,27.63
2022-08-03T11:57:07.921Z,27.46
2022-08-03T12:00:24.440Z,28.40
2022-08-03T12:03:33.616Z,27.62
2022-08-03T12:06:54.910Z,27.86
2022-08-03T12:10:12.686Z,28.56
2022-08-03T12:14:44.706Z,27.13
2022-08-03T12:16:38.231Z,27.64
2022-08-03T12:19:44.095Z,27.36
2022-08-03T12:22:46.630Z,26.94
2022-08-03T12:25:49.592Z,26.74
2022-08-03T12:28:52.499Z,27.70
2022-08-03T12:31:55.936Z,27.33
2022-08-03T12:35:01.680Z,26.86
2022-08-03T12:38:04.401Z,26.48
2022-08-03T12:41:13.439Z,26.00
2022-08-03T12:44:15.687Z,25.81
2022-08-03T12:47:18.256Z,26.25
2022-08-03T12:50:34.008Z,26.81
2022-08-03T12:53:36.898Z,26.72
2022-08-03T12:56:58.064Z,27.42
2022-08-03T13:00:21.419Z,27.37
2022-08-03T13:03:50.459Z,26.46
2022-08-03T13:07:14.180Z,25.55
2022-08-03T13:10:33.412Z,25.88
2022-08-03T13:13:39.671Z,26.08
2022-08-03T13:16:41.817Z,25.98
2022-08-03T13:19:46.122Z,26.31
2022-08-03T13:22:48.748Z,26.75
2022-08-03T13:25:55.693Z,26.27
2022-08-03T13:28:58.370Z,26.45
2022-08-03T13:32:02.239Z,26.55
2022-08-03T13:35:05.448Z,26.36
2022-08-03T13:38:07.984Z,26.08
2022-08-03T13:41:10.225Z,26.79
2022-08-03T13:44:29.554Z,26.45
2022-08-03T13:47:32.485Z,26.56
2022-08-03T13:50:37.569Z,27.01
2022-08-03T13:53:41.940Z,26.47
2022-08-03T13:56:50.193Z,26.32
2022-08-03T13:59:52.419Z,25.93
2022-08-03T14:03:06.578Z,25.63
2022-08-03T14:06:12.125Z,25.72
2022-08-03T14:09:15.022Z,26.60
2022-08-03T14:12:17.803Z,26.38
2022-08-03T14:15:19.979Z,26.91
2022-08-03T14:18:29.118Z,26.76
2022-08-03T14:21:35.927Z,26.28
2022-08-03T14:24:38.405Z,27.10
2022-08-03T14:27:40.530Z,26.48
2022-08-03T14:30:43.054Z,27.10
2022-08-03T14:33:45.213Z,26.95
2022-08-03T14:36:47.718Z,27.14
2022-08-03T14:40:05.915Z,27.16
2022-08-03T14:43:08.470Z,27.14
2022-08-03T14:46:10.617Z,27.73
2022-08-03T14:50:37.134Z,27.59
2022-08-03T14:52:36.006Z,27.10
2022-08-03T14:55:49.596Z,26.96
2022-08-03T14:58:53.675Z,27.29
2022-08-03T15:02:04.587Z,26.44
2022-08-03T15:05:10.743Z,26.63
2022-08-03T15:08:13.491Z,26.98
2022-08-03T15:11:15.660Z,26.53
2022-08-03T15:14:18.167Z,26.14
2022-08-03T15:17:24.516Z,26.24
2022-08-03T15:20:40.950Z,26.85
2022-08-03T15:23:45.827Z,27.09
2022-08-03T15:26:48.358Z,26.97
2022-08-03T15:30:06.738Z,26.70
2022-08-03T15:33:12.283Z,26.72
2022-08-03T15:36:14.448Z,26.99
2022-08-03T15:39:16.980Z,26.89
2022-08-03T15:42:19.188Z,26.95
2022-08-03T15:45:23.560Z,27.63
2022-08-03T15:48:26.458Z,27.29
2022-08-03T15:51:29.733Z,28.00
2022-08-03T15:54:31.884Z,29.25
2022-08-03T15:57:34.647Z,27.84
2022-08-03T16:00:57.642Z,27.92
2022-08-03T16:04:00.835Z,27.71
2022-08-03T16:07:03.059Z,28.00
2022-08-03T16:10:06.143Z,28.34
2022-08-03T16:13:08.864Z,28.48
2022-08-03T16:16:11.320Z,28.76
2022-08-03T16:19:13.559Z,28.74
2022-08-03T16:22:17.398Z,28.88
2022-08-03T16:25:22.002Z,28.61
2022-08-03T16:28:24.511Z,28.93
2022-08-03T16:31:28.726Z,28.64
2022-08-03T16:34:31.313Z,29.42
2022-08-03T16:37:38.733Z,29.64
2022-08-03T16:40:41.952Z,29.82
2022-08-03T16:43:44.095Z,29.91
2022-08-03T16:46:47.179Z,30.22
2022-08-03T16:49:55.507Z,30.71
2022-08-03T16:52:58.819Z,30.98
2022-08-03T16:56:01.061Z,31.27
2022-08-03T16:59:04.649Z,31.34
2022-08-03T17:02:25.331Z,31.55
2022-08-03T17:05:43.865Z,32.20
2022-08-03T17:08:55.442Z,32.21
2022-08-03T17:11:58.164Z,32.48
2022-08-03T17:15:02.720Z,32.15
2022-08-03T17:18:08.966Z,33.31
2022-08-03T17:21:11.760Z,33.67
2022-08-03T17:24:20.699Z,33.98
2022-08-03T17:28:49.512Z,34.48
2022-08-03T17:31:23.287Z,34.68
2022-08-03T17:34:32.254Z,34.73
2022-08-03T17:37:58.241Z,34.87
2022-08-03T17:40:57.947Z,35.39
2022-08-03T17:44:15.446Z,35.40
2022-08-03T17:47:23.690Z,35.91
2022-08-03T17:50:50.363Z,35.86
2022-08-03T17:54:20.437Z,36.20
2022-08-03T17:58:01.331Z,36.77
2022-08-03T18:02:00.420Z,37.23
2022-08-03T18:04:55.316Z,37.75
2022-08-03T18:08:02.527Z,37.74
2022-08-03T18:11:14.344Z,37.73
2022-08-03T18:14:29.430Z,37.77
2022-08-03T18:17:58.101Z,37.94
2022-08-03T18:20:56.820Z,38.76
2022-08-03T18:24:03.015Z,39.36
2022-08-03T18:27:08.016Z,39.31
2022-08-03T18:30:12.920Z,39.29
2022-08-03T18:34:19.855Z,39.60
2022-08-03T18:36:40.274Z,40.39
2022-08-03T18:39:49.672Z,41.92
2022-08-03T18:42:55.613Z,42.27
2022-08-03T18:46:02.799Z,42.79
2022-08-03T18:49:15.901Z,43.38
2022-08-03T18:52:39.347Z,43.65
2022-08-03T18:56:01.386Z,44.15
2022-08-03T18:59:15.780Z,44.16
2022-08-03T19:02:35.288Z,44.79
2022-08-03T19:06:01.958Z,45.03
2022-08-03T19:09:16.830Z,44.95
2022-08-03T19:12:32.314Z,44.86
2022-08-03T19:15:50.932Z,45.05
2022-08-03T19:18:55.391Z,45.13
2022-08-03T19:21:59.453Z,45.41
2022-08-03T19:25:04.552Z,44.96
2022-08-03T19:28:08.723Z,44.97
2022-08-03T19:31:11.721Z,45.74
2022-08-03T19:34:18.805Z,45.83
2022-08-03T19:37:22.066Z,46.21
2022-08-03T19:40:27.651Z,46.83
2022-08-03T19:43:53.163Z,47.75
2022-08-03T19:47:17.169Z,47.94
2022-08-03T19:50:20.710Z,48.17
2022-08-03T19:53:25.211Z,48.63
2022-08-03T19:56:44.109Z,48.46
2022-08-03T19:59:49.875Z,48.48
2022-08-03T20:02:52.876Z,47.85
2022-08-03T20:05:55.604Z,48.71
2022-08-03T20:08:58.657Z,48.48
2022-08-03T20:12:01.503Z,48.61
2022-08-03T20:15:04.677Z,48.71
2022-08-03T20:18:07.112Z,49.19
2022-08-03T20:21:23.188Z,49.57
2022-08-03T20:24:28.190Z,50.01
2022-08-03T20:28:07.672Z,49.65
2022-08-03T20:31:01.947Z,49.98
2022-08-03T20:34:06.271Z,50.31
2022-08-03T20:37:09.478Z,50.15
2022-08-03T20:40:14.208Z,48.80
2022-08-03T20:43:19.844Z,49.36
2022-08-03T20:46:32.658Z,48.96
2022-08-03T20:49:45.956Z,48.81
2022-08-03T20:52:49.743Z,48.77
2022-08-03T20:56:02.102Z,47.95
2022-08-03T20:59:07.031Z,48.76
2022-08-03T21:02:29.003Z,49.95
2022-08-03T21:05:51.038Z,50.01
2022-08-03T21:09:04.184Z,50.50
2022-08-03T21:12:12.079Z,49.90
2022-08-03T21:16:02.313Z,49.56
2022-08-03T21:18:45.694Z,48.53
2022-08-03T21:21:50.194Z,49.41
2022-08-03T21:24:55.901Z,49.41
2022-08-03T21:27:59.901Z,49.21
2022-08-03T21:31:02.555Z,49.40
2022-08-03T21:34:05.304Z,49.51
2022-08-03T21:37:07.606Z,49.43
2022-08-03T21:40:12.742Z,49.37
2022-08-03T21:43:14.905Z,49.64
2022-08-03T21:46:18.990Z,48.96
2022-08-03T21:50:07.501Z,48.85
2022-08-03T21:52:47.529Z,48.44
2022-08-03T21:56:07.165Z,49.16
2022-08-03T21:59:16.849Z,49.83
2022-08-03T22:02:24.225Z,50.64
2022-08-03T22:05:42.501Z,50.50
2022-08-03T22:08:46.637Z,50.84
2022-08-03T22:11:50.906Z,51.19
2022-08-03T22:15:01.184Z,51.72
2022-08-03T22:18:04.858Z,51.69
2022-08-03T22:21:11.578Z,51.63
2022-08-03T22:24:19.309Z,51.39
2022-08-03T22:27:30.893Z,52.46
2022-08-03T22:30:33.672Z,52.81
2022-08-03T22:33:36.529Z,53.13
2022-08-03T22:36:40.459Z,53.43
2022-08-03T22:39:43.817Z,53.76
2022-08-03T22:42:49.378Z,53.26
2022-08-03T22:46:09.129Z,53.85
2022-08-03T22:49:16.486Z,54.30
2022-08-03T22:52:19.710Z,54.67
2022-08-03T22:55:24.831Z,54.58
2022-08-03T22:58:27.407Z,54.57
2022-08-03T23:01:37.063Z,54.55
2022-08-03T23:04:41.205Z,55.22
2022-08-03T23:07:44.718Z,55.79
2022-08-03T23:10:47.968Z,53.98
2022-08-03T23:13:54.064Z,52.72
2022-08-03T23:16:56.737Z,52.04
2022-08-03T23:20:06.320Z,51.79
2022-08-03T23:23:08.696Z,52.00
2022-08-03T23:26:12.940Z,51.39
2022-08-03T23:29:16.214Z,51.37
2022-08-03T23:32:20.965Z,51.58
2022-08-03T23:36:29.846Z,52.89
2022-08-03T23:39:04.959Z,52.41
2022-08-03T23:42:07.388Z,52.24
2022-08-03T23:45:11.656Z,52.47
2022-08-03T23:48:14.051Z,52.51
2022-08-03T23:51:43.625Z,51.86
2022-08-03T23:55:00.916Z,51.03
2022-08-03T23:58:10.703Z,50.48
